createdAt,value
2022-11-18T00:00:56.303Z,97.65
2022-11-18T00:01:56.326Z,97.55
2022-11-18T00:02:56.264Z,97.45
2022-11-18T00:03:56.220Z,97.45
2022-11-18T00:04:56.218Z,97.45
2022-11-18T00:05:56.206Z,97.55
2022-11-18T00:06:56.265Z,97.45
2022-11-18T00:07:56.163Z,97.55
2022-11-18T00:08:56.157Z,97.55
2022-11-18T00:09:56.233Z,97.55
2022-11-18T00:10:56.159Z,97.45
2022-11-18T00:11:56.131Z,97.45
2022-11-18T00:12:56.136Z,97.45
2022-11-18T00:13:56.102Z,97.45
2022-11-18T00:14:56.110Z,97.55
2022-11-18T00:15:56.076Z,97.55
2022-11-18T00:16:56.055Z,97.65
2022-11-18T00:17:56.050Z,97.55
2022-11-18T00:18:56.035Z,97.65
2022-11-18T00:19:56.028Z,97.65
2022-11-18T00:20:56.040Z,97.65
2022-11-18T00:21:55.984Z,97.65
2022-11-18T00:22:55.984Z,97.65
2022-11-18T00:23:55.969Z,97.65
2022-11-18T00:24:55.995Z,97.65
2022-11-18T00:25:55.972Z,97.55
2022-11-18T00:26:55.925Z,97.55
2022-11-18T00:27:55.927Z,97.55
2022-11-18T00:28:55.929Z,97.45
2022-11-18T00:29:55.889Z,97.45
2022-11-18T00:30:55.977Z,97.34
2022-11-18T00:31:55.864Z,97.34
2022-11-18T00:32:55.878Z,97.34
2022-11-18T00:33:55.822Z,97.34
2022-11-18T00:34:55.840Z,97.34
2022-11-18T00:35:55.835Z,97.34
2022-11-18T00:36:55.793Z,97.45
2022-11-18T00:37:55.788Z,97.45
2022-11-18T00:38:55.762Z,97.49
2022-11-18T00:39:55.751Z,97.49
2022-11-18T00:40:55.776Z,97.49
2022-11-18T00:41:55.736Z,97.49
2022-11-18T00:42:55.721Z,97.60
2022-11-18T00:43:55.692Z,97.70
2022-11-18T00:44:55.699Z,97.70
2022-11-18T00:45:55.695Z,97.70
2022-11-18T00:46:55.679Z,97.80
2022-11-18T00:47:55.653Z,97.91
2022-11-18T00:48:55.654Z,97.91
2022-11-18T00:49:55.635Z,97.91
2022-11-18T00:50:55.631Z,97.80
2022-11-18T00:51:55.603Z,97.80
2022-11-18T00:52:55.612Z,97.80
2022-11-18T00:53:55.559Z,97.80
2022-11-18T00:54:55.569Z,97.91
2022-11-18T00:55:55.550Z,97.91
2022-11-18T00:56:55.554Z,97.91
2022-11-18T00:57:55.519Z,97.91
2022-11-18T00:58:55.509Z,97.86
2022-11-18T00:59:55.503Z,97.86
2022-11-18T01:00:55.570Z,97.86
2022-11-18T01:01:55.553Z,97.86
2022-11-18T01:02:55.460Z,97.86
2022-11-18T01:03:55.443Z,97.75
2022-11-18T01:04:55.439Z,97.75
2022-11-18T01:05:55.432Z,97.86
2022-11-18T01:06:55.453Z,97.86
2022-11-18T01:07:55.392Z,97.96
2022-11-18T01:08:55.403Z,97.86
2022-11-18T01:09:55.375Z,97.96
2022-11-18T01:10:55.380Z,97.96
2022-11-18T01:11:55.328Z,97.96
2022-11-18T01:12:55.348Z,97.96
2022-11-18T01:13:55.297Z,98.07
2022-11-18T01:14:55.310Z,97.96
2022-11-18T01:15:55.290Z,97.96
2022-11-18T01:16:55.277Z,98.07
2022-11-18T01:17:55.278Z,98.07
2022-11-18T01:18:55.272Z,98.07
2022-11-18T01:19:55.226Z,98.07
2022-11-18T01:20:55.260Z,98.07
2022-11-18T01:21:55.195Z,98.07
2022-11-18T01:22:55.209Z,98.16
2022-11-18T01:23:55.189Z,98.16
2022-11-18T01:24:55.181Z,98.16
2022-11-18T01:25:55.194Z,98.16
2022-11-18T01:26:55.164Z,98.16
2022-11-18T01:27:55.125Z,98.16
2022-11-18T01:28:55.113Z,98.07
2022-11-18T01:29:55.092Z,98.07
2022-11-18T01:30:55.129Z,98.16
2022-11-18T01:32:22.887Z,98.07
2022-11-18T01:32:56.063Z,98.07
2022-11-18T01:33:55.046Z,98.16
2022-11-18T01:34:55.034Z,98.16
2022-11-18T01:35:55.048Z,98.27
2022-11-18T01:36:55.028Z,98.16
2022-11-18T01:37:54.995Z,98.16
2022-11-18T01:38:54.996Z,98.16
2022-11-18T01:39:54.962Z,98.07
2022-11-18T01:40:54.983Z,98.07
2022-11-18T01:41:54.943Z,98.07
2022-11-18T01:42:54.948Z,98.07
2022-11-18T01:43:54.943Z,98.07
2022-11-18T01:44:54.918Z,98.07
2022-11-18T01:45:54.898Z,98.16
2022-11-18T01:46:54.927Z,98.16
2022-11-18T01:47:54.868Z,98.27
2022-11-18T01:48:54.873Z,98.27
2022-11-18T01:49:54.851Z,98.16
2022-11-18T01:50:54.849Z,98.27
2022-11-18T01:51:54.838Z,98.27
2022-11-18T01:52:54.815Z,98.27
2022-11-18T01:53:54.801Z,98.16
2022-11-18T01:54:54.781Z,98.16
2022-11-18T01:55:54.750Z,98.16
2022-11-18T01:56:54.775Z,98.16
2022-11-18T01:57:54.740Z,98.27
2022-11-18T01:58:54.710Z,98.27
2022-11-18T01:59:54.699Z,98.27
2022-11-18T02:00:54.764Z,98.16
2022-11-18T02:01:59.471Z,98.16
2022-11-18T02:02:55.669Z,98.16
2022-11-18T02:03:54.662Z,98.27
2022-11-18T02:04:54.649Z,98.27
2022-11-18T02:05:54.645Z,98.16
2022-11-18T02:06:54.722Z,98.16
2022-11-18T02:07:54.598Z,98.16
2022-11-18T02:08:54.603Z,98.16
2022-11-18T02:09:54.567Z,98.16
2022-11-18T02:10:54.579Z,98.16
2022-11-18T02:11:54.686Z,98.16
2022-11-18T02:12:54.552Z,98.27
2022-11-18T02:13:54.518Z,98.27
2022-11-18T02:14:54.530Z,98.27
2022-11-18T02:15:54.486Z,98.27
2022-11-18T02:16:54.496Z,98.27
2022-11-18T02:17:54.482Z,98.37
2022-11-18T02:18:54.468Z,98.37
2022-11-18T02:19:54.437Z,98.47
2022-11-18T02:20:54.459Z,98.47
2022-11-18T02:21:54.428Z,98.47
2022-11-18T02:22:54.406Z,98.47
2022-11-18T02:23:54.377Z,98.47
2022-11-18T02:24:54.388Z,98.47
2022-11-18T02:25:54.371Z,98.47
2022-11-18T02:26:54.370Z,98.47
2022-11-18T02:27:54.348Z,98.37
2022-11-18T02:28:54.326Z,98.37
2022-11-18T02:29:54.305Z,98.27
2022-11-18T02:30:54.320Z,98.27
2022-11-18T02:31:54.283Z,98.27
2022-11-18T02:32:54.308Z,98.27
2022-11-18T02:33:54.260Z,98.27
2022-11-18T02:34:54.271Z,98.27
2022-11-18T02:35:54.247Z,98.27
2022-11-18T02:36:54.225Z,98.27
2022-11-18T02:37:54.230Z,98.27
2022-11-18T02:38:54.219Z,98.27
2022-11-18T02:39:54.199Z,98.27
2022-11-18T02:40:54.174Z,98.27
2022-11-18T02:41:54.143Z,98.27
2022-11-18T02:42:54.202Z,98.27
2022-11-18T02:43:54.129Z,98.27
2022-11-18T02:44:54.149Z,98.27
2022-11-18T02:45:54.113Z,98.16
2022-11-18T02:46:54.107Z,98.16
2022-11-18T02:47:54.063Z,98.16
2022-11-18T02:48:54.098Z,98.16
2022-11-18T02:49:54.039Z,98.27
2022-11-18T02:50:54.060Z,98.27
2022-11-18T02:51:54.013Z,98.27
2022-11-18T02:52:54.038Z,98.27
2022-11-18T02:53:54.002Z,98.27
2022-11-18T02:54:54.007Z,98.27
2022-11-18T02:55:53.975Z,98.37
2022-11-18T02:56:53.976Z,98.37
2022-11-18T02:57:53.944Z,98.37
2022-11-18T02:58:53.956Z,98.37
2022-11-18T02:59:53.919Z,98.37
2022-11-18T03:00:53.926Z,98.37
2022-11-18T03:01:54.010Z,98.37
2022-11-18T03:02:53.881Z,98.47
2022-11-18T03:03:53.868Z,98.47
2022-11-18T03:04:53.886Z,98.47
2022-11-18T03:05:53.831Z,98.47
2022-11-18T03:06:53.884Z,98.47
2022-11-18T03:07:53.802Z,98.47
2022-11-18T03:08:53.809Z,98.58
2022-11-18T03:09:53.786Z,98.58
2022-11-18T03:10:53.779Z,98.58
2022-11-18T03:11:53.765Z,98.58
2022-11-18T03:12:53.764Z,98.58
2022-11-18T03:13:53.730Z,98.58
2022-11-18T03:14:53.747Z,98.58
2022-11-18T03:15:53.709Z,98.58
2022-11-18T03:16:53.716Z,98.58
2022-11-18T03:17:53.689Z,98.58
2022-11-18T03:18:53.669Z,98.68
2022-11-18T03:19:53.657Z,98.68
2022-11-18T03:20:53.658Z,98.68
2022-11-18T03:21:53.617Z,98.72
2022-11-18T03:22:53.626Z,98.72
2022-11-18T03:23:53.611Z,98.68
2022-11-18T03:24:53.617Z,98.83
2022-11-18T03:25:53.595Z,98.83
2022-11-18T03:26:53.598Z,98.83
2022-11-18T03:27:53.550Z,98.83
2022-11-18T03:28:53.559Z,98.83
2022-11-18T03:29:53.506Z,98.93
2022-11-18T03:30:53.529Z,98.93
2022-11-18T03:31:53.502Z,98.93
2022-11-18T03:32:53.485Z,99.03
2022-11-18T03:33:53.457Z,99.03
2022-11-18T03:34:53.480Z,99.03
2022-11-18T03:35:53.471Z,99.03
2022-11-18T03:36:57.164Z,99.03
2022-11-18T03:37:54.408Z,99.03
2022-11-18T03:38:53.423Z,99.03
2022-11-18T03:39:53.403Z,99.03
2022-11-18T03:40:53.423Z,98.93
2022-11-18T03:41:53.365Z,98.93
2022-11-18T03:42:53.374Z,99.03
2022-11-18T03:43:53.350Z,99.03
2022-11-18T03:44:53.334Z,99.03
2022-11-18T03:45:53.329Z,99.13
2022-11-18T03:46:53.294Z,99.24
2022-11-18T03:47:53.304Z,99.24
2022-11-18T03:48:53.275Z,99.24
2022-11-18T03:49:53.288Z,99.24
2022-11-18T03:50:53.268Z,99.34
2022-11-18T03:51:53.255Z,99.34
2022-11-18T03:52:53.219Z,99.44
2022-11-18T03:53:53.230Z,99.44
2022-11-18T03:54:53.191Z,99.44
2022-11-18T03:55:53.193Z,99.44
2022-11-18T03:56:53.190Z,99.44
2022-11-18T03:57:53.193Z,99.44
2022-11-18T03:58:53.157Z,99.44
2022-11-18T03:59:53.140Z,99.34
2022-11-18T04:00:53.118Z,99.34
2022-11-18T04:01:53.238Z,99.34
2022-11-18T04:02:53.094Z,99.34
2022-11-18T04:03:53.096Z,99.34
2022-11-18T04:04:53.069Z,99.44
2022-11-18T04:05:53.074Z,99.44
2022-11-18T04:06:53.066Z,99.44
2022-11-18T04:08:00.599Z,99.44
2022-11-18T04:08:53.013Z,99.34
2022-11-18T04:09:53.025Z,99.34
2022-11-18T04:10:53.003Z,99.34
2022-11-18T04:11:53.097Z,99.34
2022-11-18T04:12:52.982Z,99.34
2022-11-18T04:13:52.948Z,99.34
2022-11-18T04:14:52.942Z,99.34
2022-11-18T04:15:52.945Z,99.34
2022-11-18T04:16:52.887Z,99.34
2022-11-18T04:17:52.907Z,99.24
2022-11-18T04:18:52.888Z,99.24
2022-11-18T04:19:52.883Z,99.24
2022-11-18T04:20:52.850Z,99.24
2022-11-18T04:21:52.906Z,99.24
2022-11-18T04:22:52.970Z,99.24
2022-11-18T04:23:52.817Z,99.34
2022-11-18T04:24:52.787Z,99.34
2022-11-18T04:25:52.810Z,99.34
2022-11-18T04:26:55.045Z,99.34
2022-11-18T04:27:52.805Z,99.34
2022-11-18T04:28:52.787Z,99.24
2022-11-18T04:29:52.765Z,99.24
2022-11-18T04:30:52.754Z,99.34
2022-11-18T04:31:52.779Z,99.34
2022-11-18T04:32:52.751Z,99.34
2022-11-18T04:33:52.777Z,99.34
2022-11-18T04:34:52.657Z,99.34
2022-11-18T04:35:52.704Z,99.34
2022-11-18T04:36:52.632Z,99.44
2022-11-18T04:37:52.708Z,99.44
2022-11-18T04:38:52.627Z,99.44
2022-11-18T04:39:52.646Z,99.54
2022-11-18T04:40:52.610Z,99.44
2022-11-18T04:41:52.643Z,99.44
2022-11-18T04:42:52.578Z,99.44
2022-11-18T04:43:52.583Z,99.44
2022-11-18T04:44:52.538Z,99.44
2022-11-18T04:45:52.560Z,99.34
2022-11-18T04:46:52.511Z,99.34
2022-11-18T04:47:52.546Z,99.29
2022-11-18T04:48:52.538Z,99.40
2022-11-18T04:49:52.529Z,99.40
2022-11-18T04:50:52.449Z,99.40
2022-11-18T04:51:52.442Z,99.40
2022-11-18T04:52:53.200Z,99.44
2022-11-18T04:53:52.597Z,99.40
2022-11-18T04:54:52.391Z,99.44
2022-11-18T04:55:52.399Z,99.44
2022-11-18T04:56:52.398Z,99.54
2022-11-18T04:57:52.412Z,99.54
2022-11-18T04:58:52.381Z,99.44
2022-11-18T04:59:52.374Z,99.44
2022-11-18T05:00:52.387Z,99.44
2022-11-18T05:01:52.351Z,99.34
2022-11-18T05:02:52.333Z,99.34
2022-11-18T05:03:52.421Z,99.34
2022-11-18T05:04:52.289Z,99.34
2022-11-18T05:05:52.296Z,99.24
2022-11-18T05:06:52.425Z,99.34
2022-11-18T05:07:52.280Z,99.34
2022-11-18T05:08:52.289Z,99.34
2022-11-18T05:09:52.227Z,99.44
2022-11-18T05:10:56.074Z,99.44
2022-11-18T05:11:52.240Z,99.44
2022-11-18T05:12:52.192Z,99.54
2022-11-18T05:13:52.174Z,99.54
2022-11-18T05:14:52.154Z,99.54
2022-11-18T05:15:52.150Z,99.65
2022-11-18T05:16:52.108Z,99.65
2022-11-18T05:17:52.150Z,99.54
2022-11-18T05:18:52.096Z,99.69
2022-11-18T05:19:52.119Z,99.59
2022-11-18T05:20:53.151Z,99.69
2022-11-18T05:21:52.076Z,99.69
2022-11-18T05:22:52.109Z,99.79
2022-11-18T05:23:52.232Z,99.79
2022-11-18T05:24:52.010Z,99.79
2022-11-18T05:25:52.011Z,99.90
2022-11-18T05:26:51.967Z,99.90
2022-11-18T05:27:52.001Z,99.99
2022-11-18T05:28:51.984Z,99.99
2022-11-18T05:29:51.951Z,99.99
2022-11-18T05:30:51.936Z,99.99
2022-11-18T05:31:51.916Z,99.99
2022-11-18T05:32:51.898Z,99.99
2022-11-18T05:33:51.926Z,99.99
2022-11-18T05:34:51.897Z,99.99
2022-11-18T05:35:55.144Z,99.99
2022-11-18T05:36:51.843Z,99.99
2022-11-18T05:37:51.879Z,99.99
2022-11-18T05:38:51.851Z,99.99
2022-11-18T05:39:51.814Z,99.99
2022-11-18T05:40:51.808Z,99.99
2022-11-18T05:41:51.787Z,99.99
2022-11-18T05:42:51.777Z,99.99
2022-11-18T05:43:51.780Z,99.99
2022-11-18T05:44:57.508Z,99.99
2022-11-18T05:45:52.747Z,99.99
2022-11-18T05:46:51.720Z,99.99
2022-11-18T05:47:51.703Z,99.99
2022-11-18T05:48:51.694Z,99.99
2022-11-18T05:49:51.722Z,99.99
2022-11-18T05:50:51.677Z,99.99
2022-11-18T05:51:51.651Z,99.99
2022-11-18T05:52:51.671Z,99.99
2022-11-18T05:53:51.633Z,99.99
2022-11-18T05:54:51.601Z,99.99
2022-11-18T05:55:51.630Z,99.99
2022-11-18T05:56:51.603Z,99.99
2022-11-18T05:57:51.596Z,99.99
2022-11-18T05:58:51.563Z,99.99
2022-11-18T05:59:51.576Z,99.99
2022-11-18T06:00:51.531Z,99.99
2022-11-18T06:01:51.548Z,99.99
2022-11-18T06:02:51.639Z,99.99
2022-11-18T06:03:51.536Z,99.99
2022-11-18T06:04:51.479Z,99.99
2022-11-18T06:05:51.470Z,99.99
2022-11-18T06:06:51.452Z,99.99
2022-11-18T06:07:51.466Z,99.99
2022-11-18T06:08:51.438Z,99.99
2022-11-18T06:09:51.448Z,99.99
2022-11-18T06:10:51.411Z,99.99
2022-11-18T06:11:51.412Z,99.99
2022-11-18T06:12:51.384Z,99.99
2022-11-18T06:13:51.377Z,99.99
2022-11-18T06:14:51.339Z,99.99
2022-11-18T06:15:51.355Z,99.99
2022-11-18T06:16:51.330Z,99.99
2022-11-18T06:17:51.336Z,99.99
2022-11-18T06:18:51.303Z,99.99
2022-11-18T06:19:51.309Z,99.99
2022-11-18T06:20:51.280Z,99.99
2022-11-18T06:21:51.283Z,99.99
2022-11-18T06:22:51.246Z,99.99
2022-11-18T06:23:51.228Z,99.99
2022-11-18T06:24:51.218Z,99.99
2022-11-18T06:25:51.218Z,99.99
2022-11-18T06:26:51.224Z,99.99
2022-11-18T06:27:51.177Z,99.99
2022-11-18T06:28:51.169Z,99.99
2022-11-18T06:29:51.180Z,99.99
2022-11-18T06:30:51.146Z,99.99
2022-11-18T06:31:51.152Z,99.99
2022-11-18T06:32:51.131Z,99.99
2022-11-18T06:33:51.122Z,99.99
2022-11-18T06:34:51.113Z,99.99
2022-11-18T06:35:51.092Z,99.99
2022-11-18T06:36:51.081Z,99.99
2022-11-18T06:37:51.055Z,99.99
2022-11-18T06:38:51.026Z,99.99
2022-11-18T06:39:51.053Z,99.99
2022-11-18T06:40:51.008Z,99.99
2022-11-18T06:41:51.019Z,99.99
2022-11-18T06:42:50.990Z,99.99
2022-11-18T06:43:50.976Z,99.99
2022-11-18T06:44:51.047Z,99.99
2022-11-18T06:45:50.958Z,99.99
2022-11-18T06:46:50.967Z,99.99
2022-11-18T06:47:50.937Z,99.99
2022-11-18T06:48:50.909Z,99.99
2022-11-18T06:49:50.926Z,99.99
2022-11-18T06:50:50.875Z,99.99
2022-11-18T06:51:50.887Z,99.99
2022-11-18T06:52:50.834Z,99.99
2022-11-18T06:53:50.843Z,99.99
2022-11-18T06:54:50.825Z,99.99
2022-11-18T06:55:50.824Z,99.99
2022-11-18T06:56:50.823Z,99.99
2022-11-18T06:57:50.782Z,99.99
2022-11-18T06:58:50.762Z,99.99
2022-11-18T06:59:50.796Z,99.99
2022-11-18T07:00:50.772Z,99.99
2022-11-18T07:01:50.745Z,99.99
2022-11-18T07:02:50.734Z,99.99
2022-11-18T07:03:50.729Z,99.99
2022-11-18T07:04:50.730Z,99.99
2022-11-18T07:05:50.697Z,99.99
2022-11-18T07:06:50.673Z,99.99
2022-11-18T07:07:50.700Z,99.99
2022-11-18T07:08:50.630Z,99.99
2022-11-18T07:09:50.641Z,99.99
2022-11-18T07:10:50.669Z,99.99
2022-11-18T07:11:50.625Z,99.99
2022-11-18T07:12:50.604Z,99.99
2022-11-18T07:13:50.606Z,99.99
2022-11-18T07:14:50.585Z,99.99
2022-11-18T07:15:50.571Z,99.99
2022-11-18T07:16:50.547Z,99.99
2022-11-18T07:17:50.554Z,99.99
2022-11-18T07:18:50.533Z,99.99
2022-11-18T07:19:50.510Z,99.99
2022-11-18T07:20:50.501Z,99.99
2022-11-18T07:21:50.492Z,99.99
2022-11-18T07:22:50.449Z,99.99
2022-11-18T07:23:50.470Z,99.99
2022-11-18T07:24:50.520Z,99.99
2022-11-18T07:25:50.448Z,99.99
2022-11-18T07:26:50.398Z,99.99
2022-11-18T07:27:50.399Z,99.99
2022-11-18T07:28:50.395Z,99.99
2022-11-18T07:29:50.386Z,99.99
2022-11-18T07:30:50.337Z,99.99
2022-11-18T07:31:50.362Z,99.99
2022-11-18T07:32:50.345Z,99.99
2022-11-18T07:33:50.361Z,99.99
2022-11-18T07:34:50.341Z,99.99
2022-11-18T07:35:50.305Z,99.99
2022-11-18T07:36:50.295Z,99.99
2022-11-18T07:37:50.265Z,99.99
2022-11-18T07:38:50.260Z,99.99
2022-11-18T07:39:50.247Z,99.99
2022-11-18T07:40:50.222Z,99.99
2022-11-18T07:41:50.227Z,99.99
2022-11-18T07:42:50.195Z,99.99
2022-11-18T07:43:50.220Z,99.99
2022-11-18T07:44:50.166Z,99.99
2022-11-18T07:45:50.211Z,99.99
2022-11-18T07:46:50.173Z,99.99
2022-11-18T07:47:50.127Z,99.99
2022-11-18T07:48:50.155Z,99.99
2022-11-18T07:49:50.152Z,99.99
2022-11-18T07:50:50.076Z,99.99
2022-11-18T07:51:50.088Z,99.99
2022-11-18T07:52:50.068Z,99.99
2022-11-18T07:53:50.052Z,99.99
2022-11-18T07:54:50.037Z,99.99
2022-11-18T07:55:50.058Z,99.99
2022-11-18T07:56:50.007Z,99.99
2022-11-18T07:57:50.019Z,99.99
2022-11-18T07:58:49.992Z,99.99
2022-11-18T07:59:50.016Z,99.99
2022-11-18T08:00:49.997Z,99.99
2022-11-18T08:01:50.084Z,99.99
2022-11-18T08:02:49.937Z,99.99
2022-11-18T08:03:49.902Z,99.99
2022-11-18T08:04:49.973Z,99.99
2022-11-18T08:05:49.927Z,99.99
2022-11-18T08:06:49.900Z,99.99
2022-11-18T08:07:49.905Z,99.99
2022-11-18T08:08:49.895Z,99.99
2022-11-18T08:09:49.865Z,99.99
2022-11-18T08:10:49.858Z,99.99
2022-11-18T08:11:49.815Z,99.99
2022-11-18T08:12:49.834Z,99.99
2022-11-18T08:13:49.794Z,99.99
2022-11-18T08:14:49.770Z,99.99
2022-11-18T08:15:49.775Z,99.99
2022-11-18T08:16:49.770Z,99.99
2022-11-18T08:17:49.729Z,99.99
2022-11-18T08:18:49.750Z,99.99
2022-11-18T08:19:49.708Z,99.99
2022-11-18T08:20:49.745Z,99.99
2022-11-18T08:21:49.731Z,99.99
2022-11-18T08:22:49.691Z,99.99
2022-11-18T08:23:49.677Z,99.99
2022-11-18T08:24:49.674Z,99.99
2022-11-18T08:25:49.648Z,99.99
2022-11-18T08:26:49.617Z,99.99
2022-11-18T08:27:49.616Z,99.99
2022-11-18T08:28:49.704Z,99.99
2022-11-18T08:29:49.583Z,99.99
2022-11-18T08:30:49.603Z,99.99
2022-11-18T08:31:49.552Z,99.99
2022-11-18T08:32:49.561Z,99.99
2022-11-18T08:33:49.548Z,99.99
2022-11-18T08:34:49.537Z,99.99
2022-11-18T08:35:49.497Z,99.99
2022-11-18T08:36:49.501Z,99.99
2022-11-18T08:37:49.475Z,99.99
2022-11-18T08:38:49.491Z,99.99
2022-11-18T08:39:49.436Z,99.99
2022-11-18T08:40:49.467Z,99.99
2022-11-18T08:41:49.454Z,99.99
2022-11-18T08:42:49.416Z,99.99
2022-11-18T08:43:49.384Z,99.99
2022-11-18T08:44:49.400Z,99.99
2022-11-18T08:45:49.373Z,99.99
2022-11-18T08:46:49.369Z,99.99
2022-11-18T08:47:49.356Z,99.99
2022-11-18T08:48:49.333Z,99.99
2022-11-18T08:49:49.309Z,99.99
2022-11-18T08:50:49.329Z,99.99
2022-11-18T08:51:49.301Z,99.99
2022-11-18T08:52:49.299Z,99.99
2022-11-18T08:53:49.264Z,99.99
2022-11-18T08:54:49.244Z,99.99
2022-11-18T08:55:52.992Z,99.99
2022-11-18T08:56:50.250Z,99.99
2022-11-18T08:57:49.248Z,99.99
2022-11-18T08:58:49.216Z,99.99
2022-11-18T08:59:49.162Z,99.99
2022-11-18T09:00:49.182Z,99.99
2022-11-18T09:01:49.234Z,99.99
2022-11-18T09:02:49.178Z,99.99
2022-11-18T09:03:49.145Z,99.99
2022-11-18T09:04:49.143Z,99.99
2022-11-18T09:05:49.135Z,99.99
2022-11-18T09:06:49.107Z,99.99
2022-11-18T09:07:49.062Z,99.91
2022-11-18T09:08:49.071Z,99.71
2022-11-18T09:09:49.055Z,99.51
2022-11-18T09:10:49.106Z,99.41
2022-11-18T09:11:49.025Z,99.26
2022-11-18T09:12:49.020Z,99.15
2022-11-18T09:15:49.994Z,98.65
2022-11-18T09:16:48.985Z,98.44
2022-11-18T09:17:48.967Z,98.33
2022-11-18T09:18:48.954Z,98.07
2022-11-18T09:19:48.909Z,97.82
2022-11-18T09:20:48.945Z,97.66
2022-11-18T09:21:48.891Z,97.36
2022-11-18T09:22:48.879Z,97.00
2022-11-18T09:23:48.889Z,96.91
2022-11-18T09:24:48.870Z,96.70
2022-11-18T09:25:48.873Z,96.03
2022-11-18T09:26:48.843Z,95.62
2022-11-18T09:27:48.844Z,95.41
2022-11-18T09:28:48.798Z,95.10
2022-11-18T09:29:48.778Z,95.10
2022-11-18T09:30:48.797Z,95.21
2022-11-18T09:31:48.759Z,95.17
2022-11-18T09:32:48.748Z,95.21
2022-11-18T09:33:48.726Z,95.21
2022-11-18T09:34:48.726Z,95.21
2022-11-18T09:35:48.726Z,95.21
2022-11-18T09:36:48.707Z,95.10
2022-11-18T09:37:48.672Z,95.10
2022-11-18T09:38:53.009Z,95.10
2022-11-18T09:39:48.647Z,95.21
2022-11-18T09:40:48.677Z,95.21
2022-11-18T09:41:48.654Z,94.80
2022-11-18T09:42:48.616Z,94.29
2022-11-18T09:43:48.595Z,94.29
2022-11-18T09:44:48.616Z,94.29
2022-11-18T09:45:48.575Z,94.70
2022-11-18T09:46:48.597Z,94.59
2022-11-18T09:47:48.580Z,94.59
2022-11-18T09:48:48.568Z,94.70
2022-11-18T09:49:48.530Z,94.59
2022-11-18T09:50:50.316Z,94.59
2022-11-18T09:51:48.519Z,94.49
2022-11-18T09:52:48.485Z,94.59
2022-11-18T09:53:48.485Z,94.49
2022-11-18T09:54:48.455Z,94.29
2022-11-18T09:55:48.450Z,94.29
2022-11-18T09:56:48.614Z,94.39
2022-11-18T09:57:48.414Z,94.49
2022-11-18T09:58:48.422Z,94.65
2022-11-18T09:59:48.409Z,94.24
2022-11-18T10:00:48.411Z,93.63
2022-11-18T10:01:48.407Z,93.32
2022-11-18T10:02:48.398Z,93.32
2022-11-18T10:03:48.359Z,93.43
2022-11-18T10:04:48.356Z,92.91
2022-11-18T10:05:48.326Z,92.60
2022-11-18T10:06:48.357Z,92.50
2022-11-18T10:07:48.312Z,92.60
2022-11-18T10:08:55.971Z,92.56
2022-11-18T10:09:48.258Z,92.66
2022-11-18T10:10:48.266Z,92.46
2022-11-18T10:11:51.996Z,92.77
2022-11-18T10:12:48.247Z,92.46
2022-11-18T10:13:48.291Z,92.36
2022-11-18T10:14:48.278Z,91.85
2022-11-18T10:15:48.208Z,91.74
2022-11-18T10:16:48.245Z,91.64
2022-11-18T10:17:48.224Z,91.50
2022-11-18T10:19:03.574Z,91.70
2022-11-18T10:19:49.175Z,91.50
2022-11-18T10:20:48.161Z,91.91
2022-11-18T10:21:48.213Z,91.19
2022-11-18T10:22:48.183Z,90.88
2022-11-18T10:23:48.182Z,90.78
2022-11-18T10:24:48.160Z,90.58
2022-11-18T10:25:48.184Z,90.23
2022-11-18T10:26:48.139Z,89.82
2022-11-18T10:27:48.166Z,89.82
2022-11-18T10:28:48.073Z,90.23
2022-11-18T10:29:48.031Z,90.33
2022-11-18T10:30:48.152Z,90.53
2022-11-18T10:31:48.045Z,90.33
2022-11-18T10:32:47.984Z,89.51
2022-11-18T10:33:47.998Z,88.79
2022-11-18T10:34:48.009Z,89.11
2022-11-18T10:35:47.934Z,89.11
2022-11-18T10:36:47.957Z,88.90
2022-11-18T10:38:06.923Z,89.00
2022-11-18T10:38:50.332Z,89.17
2022-11-18T10:39:47.902Z,88.76
2022-11-18T10:40:47.984Z,89.06
2022-11-18T10:41:47.841Z,88.96
2022-11-18T10:42:47.881Z,88.55
2022-11-18T10:43:47.864Z,88.82
2022-11-18T10:44:47.811Z,87.90
2022-11-18T10:45:47.800Z,87.70
2022-11-18T10:46:47.813Z,87.18
2022-11-18T10:47:47.811Z,87.08
2022-11-18T10:48:47.802Z,87.18
2022-11-18T10:49:47.794Z,86.47
2022-11-18T10:50:53.535Z,86.53
2022-11-18T10:51:48.777Z,87.04
2022-11-18T10:52:47.771Z,86.43
2022-11-18T10:53:47.730Z,85.92
2022-11-18T10:54:47.715Z,86.33
2022-11-18T10:55:47.661Z,85.82
2022-11-18T10:56:47.699Z,85.71
2022-11-18T10:57:47.652Z,85.00
2022-11-18T10:58:47.654Z,85.71
2022-11-18T10:59:47.616Z,86.12
2022-11-18T11:00:47.626Z,86.02
2022-11-18T11:01:47.590Z,85.21
2022-11-18T11:02:47.605Z,84.49
2022-11-18T11:03:47.598Z,84.59
2022-11-18T11:04:47.639Z,84.59
2022-11-18T11:05:47.542Z,85.00
2022-11-18T11:06:47.563Z,85.21
2022-11-18T11:07:47.537Z,85.51
2022-11-18T11:08:47.523Z,85.82
2022-11-18T11:09:47.523Z,84.90
2022-11-18T11:10:52.470Z,85.30
2022-11-18T11:11:48.488Z,85.51
2022-11-18T11:12:47.472Z,85.71
2022-11-18T11:13:47.434Z,85.41
2022-11-18T11:14:47.469Z,85.21
2022-11-18T11:15:47.468Z,85.30
2022-11-18T11:16:47.454Z,85.51
2022-11-18T11:17:47.439Z,85.51
2022-11-18T11:18:47.402Z,85.71
2022-11-18T11:19:47.338Z,85.00
2022-11-18T11:20:47.432Z,84.59
2022-11-18T11:21:47.328Z,84.08
2022-11-18T11:22:47.353Z,84.90
2022-11-18T11:23:47.334Z,85.30
2022-11-18T11:24:47.360Z,85.61
2022-11-18T11:28:48.293Z,84.69
2022-11-18T11:29:47.240Z,84.69
2022-11-18T11:30:47.321Z,85.00
2022-11-18T11:31:47.179Z,84.49
2022-11-18T11:32:47.203Z,85.10
2022-11-18T11:33:47.200Z,85.51
2022-11-18T11:34:47.162Z,85.21
2022-11-18T11:35:47.140Z,85.51
2022-11-18T11:36:47.150Z,85.61
2022-11-18T11:37:47.124Z,85.21
2022-11-18T11:38:47.104Z,85.21
2022-11-18T11:39:47.173Z,85.30
2022-11-18T11:40:47.177Z,85.00
2022-11-18T11:41:47.120Z,85.00
2022-11-18T11:42:47.067Z,84.90
2022-11-18T11:43:47.040Z,84.69
2022-11-18T11:44:47.086Z,85.21
2022-11-18T11:45:47.061Z,85.82
2022-11-18T11:46:47.026Z,85.86
2022-11-18T11:47:47.005Z,86.16
2022-11-18T11:48:47.005Z,86.06
2022-11-18T11:49:46.960Z,86.16
2022-11-18T11:50:54.734Z,85.79
2022-11-18T11:51:47.937Z,86.61
2022-11-18T11:52:46.937Z,86.00
2022-11-18T11:53:46.926Z,86.00
2022-11-18T11:54:46.946Z,86.24
2022-11-18T11:55:54.492Z,86.85
2022-11-18T11:56:46.890Z,87.16
2022-11-18T11:57:46.869Z,87.37
2022-11-18T11:58:46.920Z,87.37
2022-11-18T11:59:46.938Z,87.16
2022-11-18T12:00:46.841Z,87.61
2022-11-18T12:01:46.867Z,88.02
2022-11-18T12:02:46.818Z,88.12
2022-11-18T12:03:51.689Z,87.92
2022-11-18T12:04:47.799Z,87.92
2022-11-18T12:05:46.750Z,88.33
2022-11-18T12:06:46.721Z,88.43
2022-11-18T12:07:46.892Z,88.23
2022-11-18T12:08:46.725Z,88.53
2022-11-18T12:09:46.690Z,88.74
2022-11-18T12:10:46.718Z,88.74
2022-11-18T12:11:46.663Z,89.25
2022-11-18T12:12:46.677Z,89.25
2022-11-18T12:13:46.650Z,89.04
2022-11-18T12:14:46.630Z,88.98
2022-11-18T12:15:46.649Z,89.39
2022-11-18T12:16:46.592Z,89.39
2022-11-18T12:17:46.590Z,89.39
2022-11-18T12:18:46.584Z,89.39
2022-11-18T12:19:46.607Z,89.80
2022-11-18T12:20:46.558Z,89.80
2022-11-18T12:21:46.565Z,89.59
2022-11-18T12:22:46.535Z,89.39
2022-11-18T12:23:46.508Z,89.50
2022-11-18T12:24:46.515Z,89.50
2022-11-18T12:25:46.510Z,89.59
2022-11-18T12:26:46.465Z,89.39
2022-11-18T12:27:46.485Z,89.29
2022-11-18T12:28:46.457Z,89.18
2022-11-18T12:29:46.448Z,89.39
2022-11-18T12:30:46.425Z,89.09
2022-11-18T12:31:46.446Z,88.98
2022-11-18T12:32:46.387Z,88.88
2022-11-18T12:33:46.399Z,88.88
2022-11-18T12:34:46.347Z,88.88
2022-11-18T12:35:46.388Z,88.88
2022-11-18T12:36:46.347Z,88.98
2022-11-18T12:37:46.373Z,89.18
2022-11-18T12:38:46.298Z,89.39
2022-11-18T12:39:46.365Z,89.29
2022-11-18T12:40:52.332Z,88.98
2022-11-18T12:41:47.323Z,89.09
2022-11-18T12:42:46.274Z,89.39
2022-11-18T12:43:46.245Z,89.59
2022-11-18T12:44:46.263Z,89.39
2022-11-18T12:45:46.275Z,89.29
2022-11-18T12:46:46.222Z,89.29
2022-11-18T12:47:46.260Z,89.09
2022-11-18T12:48:46.173Z,89.39
2022-11-18T12:49:46.202Z,89.18
2022-11-18T12:50:46.234Z,89.18
2022-11-18T12:51:46.147Z,89.29
2022-11-18T12:52:46.142Z,89.39
2022-11-18T12:53:46.142Z,89.59
2022-11-18T12:54:46.086Z,89.59
2022-11-18T12:55:46.114Z,89.70
2022-11-18T12:56:46.086Z,89.70
2022-11-18T12:57:46.091Z,89.80